createdAt,value
2022-10-06T00:01:55.466Z,99822.88
2022-10-06T00:04:24.144Z,99826.91
2022-10-06T00:06:52.835Z,99784.72
2022-10-06T00:09:21.538Z,99837.38
2022-10-06T00:11:50.258Z,99830.94
2022-10-06T00:14:20.255Z,99836.97
2022-10-06T00:16:49.014Z,99829.09
2022-10-06T00:19:17.762Z,99835.34
2022-10-06T00:21:46.410Z,99845.25
2022-10-06T00:24:15.111Z,99848.25
2022-10-06T00:26:43.797Z,99842.22
2022-10-06T00:29:13.395Z,99833.13
2022-10-06T00:31:43.703Z,99843.00
2022-10-06T00:34:12.889Z,99849.47
2022-10-06T00:36:41.602Z,99849.06
2022-10-06T00:39:10.314Z,99856.94
2022-10-06T00:41:40.065Z,99851.28
2022-10-06T00:44:08.712Z,99856.75
2022-10-06T00:46:40.182Z,99847.06
2022-10-06T00:49:14.897Z,99863.19
2022-10-06T00:51:47.119Z,99862.38
2022-10-06T00:54:16.334Z,99855.47
2022-10-06T00:56:45.443Z,99849.78
2022-10-06T00:59:16.012Z,99868.78
2022-10-06T01:01:51.019Z,99866.75
2022-10-06T01:04:21.965Z,99868.34
2022-10-06T01:06:53.221Z,99872.38
2022-10-06T01:09:22.409Z,99865.16
2022-10-06T01:11:52.573Z,99871.16
2022-10-06T01:14:22.538Z,99869.16
2022-10-06T01:16:55.709Z,99880.03
2022-10-06T01:19:35.804Z,99849.31
2022-10-06T01:22:05.856Z,99867.16
2022-10-06T01:24:36.166Z,99871.16
2022-10-06T01:27:05.556Z,99882.25
2022-10-06T01:29:34.817Z,99881.69
2022-10-06T01:32:03.648Z,99887.72
2022-10-06T01:34:32.504Z,99879.88
2022-10-06T01:37:01.138Z,99884.88
2022-10-06T01:39:29.756Z,99876.56
2022-10-06T01:41:59.800Z,99880.84
2022-10-06T01:44:28.458Z,99888.69
2022-10-06T01:46:57.150Z,99883.84
2022-10-06T01:49:25.778Z,99873.97
2022-10-06T01:51:54.420Z,99893.34
2022-10-06T01:54:23.070Z,99886.88
2022-10-06T01:56:51.750Z,99877.56
2022-10-06T01:59:21.712Z,99898.34
2022-10-06T02:01:50.412Z,99900.13
2022-10-06T02:04:19.187Z,99907.38
2022-10-06T02:06:47.823Z,99900.13
2022-10-06T02:09:16.768Z,99906.22
2022-10-06T02:11:45.418Z,99897.50
2022-10-06T02:14:14.061Z,99908.38
2022-10-06T02:16:44.082Z,99906.59
2022-10-06T02:19:12.849Z,99894.69
2022-10-06T02:21:41.995Z,99908.56
2022-10-06T02:24:10.750Z,99906.16
2022-10-06T02:26:39.571Z,99913.44
2022-10-06T02:29:08.232Z,99912.78
2022-10-06T02:31:36.909Z,99935.31
2022-10-06T02:34:06.921Z,99914.06
2022-10-06T02:36:35.707Z,99914.06
2022-10-06T02:39:04.653Z,99944.03
2022-10-06T02:41:33.734Z,99949.84
2022-10-06T02:44:02.395Z,99942.56
2022-10-06T02:46:31.540Z,99921.50
2022-10-06T02:49:00.253Z,99937.59
2022-10-06T02:51:31.433Z,99967.06
2022-10-06T02:54:00.033Z,99975.34
2022-10-06T02:56:28.832Z,99986.47
2022-10-06T02:58:57.476Z,99987.56
2022-10-06T03:01:27.885Z,99986.09
2022-10-06T03:03:56.636Z,99978.06
2022-10-06T03:06:26.913Z,99973.88
2022-10-06T03:08:58.526Z,99983.31
2022-10-06T03:11:29.052Z,99990.44
2022-10-06T03:13:58.049Z,99984.94
2022-10-06T03:16:28.028Z,99983.31
2022-10-06T03:18:57.203Z,99992.34
2022-10-06T03:21:27.268Z,99997.28
2022-10-06T03:23:58.221Z,100009.03
2022-10-06T03:26:28.989Z,100010.09
2022-10-06T03:28:57.987Z,100022.97
2022-10-06T03:31:27.391Z,100015.03
2022-10-06T03:33:56.756Z,100021.06
2022-10-06T03:36:27.829Z,100029.88
2022-10-06T03:38:57.790Z,100026.00
2022-10-06T03:41:28.279Z,100029.03
2022-10-06T03:43:58.062Z,100041.59
2022-10-06T03:46:27.986Z,100035.88
2022-10-06T03:48:57.781Z,100051.75
2022-10-06T03:51:29.541Z,100051.50
2022-10-06T03:54:00.552Z,100049.47
2022-10-06T03:56:30.707Z,100060.31
2022-10-06T03:59:00.549Z,100065.88
2022-10-06T04:01:31.046Z,100066.94
2022-10-06T04:04:00.538Z,100072.00
2022-10-06T04:06:30.967Z,100070.50
2022-10-06T04:09:01.438Z,100072.72
2022-10-06T04:11:31.357Z,100083.66
2022-10-06T04:14:01.495Z,100083.66
2022-10-06T04:16:32.046Z,100087.53
2022-10-06T04:19:01.973Z,100088.94
2022-10-06T04:21:31.948Z,100096.97
2022-10-06T04:24:02.029Z,100089.75
2022-10-06T04:26:33.168Z,100088.41
2022-10-06T04:29:02.058Z,100106.75
2022-10-06T04:31:32.754Z,100101.63
2022-10-06T04:34:02.326Z,100103.59
2022-10-06T04:36:32.464Z,100111.25
2022-10-06T04:39:04.683Z,100117.72
2022-10-06T04:41:35.016Z,100113.16
2022-10-06T04:44:04.425Z,100119.59
2022-10-06T04:46:43.812Z,100124.81
2022-10-06T04:49:19.594Z,100112.19
2022-10-06T04:51:49.991Z,100115.19
2022-10-06T04:54:20.152Z,100125.44
2022-10-06T04:56:48.909Z,100115.34
2022-10-06T04:59:17.694Z,100123.38
2022-10-06T05:01:46.416Z,100131.03
2022-10-06T05:04:15.139Z,100128.59
2022-10-06T05:06:43.840Z,100135.00
2022-10-06T05:09:13.680Z,100135.81
2022-10-06T05:11:43.648Z,100134.81
2022-10-06T05:14:12.300Z,100146.78
2022-10-06T05:16:42.921Z,100135.00
2022-10-06T05:19:11.637Z,100151.53
2022-10-06T05:21:40.385Z,100159.13
2022-10-06T05:24:09.241Z,100155.97
2022-10-06T05:26:38.150Z,100159.69
2022-10-06T05:29:08.154Z,100165.31
2022-10-06T05:31:38.915Z,100170.50
2022-10-06T05:34:08.110Z,100169.66
2022-10-06T05:36:36.909Z,100120.50
2022-10-06T05:39:06.237Z,100174.53
2022-10-06T05:41:37.636Z,100175.78
2022-10-06T05:44:08.689Z,100185.06
2022-10-06T05:46:37.336Z,100182.06
2022-10-06T05:49:07.900Z,100190.13
2022-10-06T05:51:37.520Z,100197.19
2022-10-06T05:54:06.414Z,100197.66
2022-10-06T05:56:36.830Z,100203.03
2022-10-06T05:59:06.218Z,100203.59
2022-10-06T06:01:37.919Z,100206.41
2022-10-06T06:04:08.077Z,100206.84
2022-10-06T06:06:38.013Z,100221.44
2022-10-06T06:09:08.620Z,100221.44
2022-10-06T06:11:39.216Z,100225.91
2022-10-06T06:14:09.756Z,100221.63
2022-10-06T06:16:40.206Z,100225.13
2022-10-06T06:19:10.305Z,100229.50
2022-10-06T06:21:39.254Z,100232.72
2022-10-06T06:24:08.142Z,100240.69
2022-10-06T06:26:38.225Z,100235.91
2022-10-06T06:29:09.679Z,100241.97
2022-10-06T06:31:43.698Z,100238.66
2022-10-06T06:34:12.483Z,100240.28
2022-10-06T06:36:44.905Z,100249.84
2022-10-06T06:39:15.116Z,100250.25
2022-10-06T06:41:46.049Z,100257.94
2022-10-06T06:44:15.375Z,100266.84
2022-10-06T06:46:49.162Z,100274.50
2022-10-06T06:49:20.613Z,100276.72
2022-10-06T06:51:50.430Z,100280.16
2022-10-06T06:54:19.224Z,100282.56
2022-10-06T06:56:48.832Z,100278.59
2022-10-06T06:59:17.895Z,100280.63
2022-10-06T07:01:48.885Z,100293.13
2022-10-06T07:04:18.612Z,100294.75
2022-10-06T07:06:53.223Z,100290.75
2022-10-06T07:09:21.930Z,100301.22
2022-10-06T07:11:51.166Z,100300.50
2022-10-06T07:14:22.458Z,100294.94
2022-10-06T07:17:10.012Z,100307.09
2022-10-06T07:19:52.881Z,100303.97
2022-10-06T07:22:40.536Z,100313.94
2022-10-06T07:25:15.023Z,100327.06
2022-10-06T07:27:45.297Z,100324.28
2022-10-06T07:30:18.871Z,100331.78
2022-10-06T07:32:50.516Z,100337.88
2022-10-06T07:35:20.297Z,100339.13
2022-10-06T07:37:49.596Z,100334.47
2022-10-06T07:40:19.004Z,100330.28
2022-10-06T07:42:52.077Z,100334.13
2022-10-06T07:45:56.852Z,100342.28
2022-10-06T07:48:27.078Z,100338.66
2022-10-06T07:50:55.756Z,100338.25
2022-10-06T07:53:28.323Z,100346.97
2022-10-06T07:56:05.014Z,100344.75
2022-10-06T07:58:34.288Z,100339.34
2022-10-06T08:01:06.505Z,100346.25
2022-10-06T08:03:37.534Z,100342.41
2022-10-06T08:06:06.682Z,100356.59
2022-10-06T08:08:37.065Z,100350.34
2022-10-06T08:11:06.752Z,100344.91
2022-10-06T08:13:37.262Z,100358.88
2022-10-06T08:16:06.651Z,100352.22
2022-10-06T08:18:46.425Z,100355.47
2022-10-06T08:21:17.301Z,100351.47
2022-10-06T08:23:47.772Z,100361.59
2022-10-06T08:26:18.328Z,100367.91
2022-10-06T08:28:48.574Z,100369.72
2022-10-06T08:31:18.340Z,100373.59
2022-10-06T08:33:49.265Z,100379.50
2022-10-06T08:36:19.578Z,100380.09
2022-10-06T08:38:50.498Z,100387.81
2022-10-06T08:41:20.721Z,100381.34
2022-10-06T08:43:56.731Z,100381.34
2022-10-06T08:46:26.640Z,100380.13
2022-10-06T08:48:58.388Z,100375.06
2022-10-06T08:51:36.679Z,100386.03
2022-10-06T08:54:11.725Z,100394.31
2022-10-06T08:56:48.696Z,100394.31
2022-10-06T08:59:17.385Z,100388.84
2022-10-06T09:01:47.740Z,100393.69
2022-10-06T09:04:22.990Z,100390.44
2022-10-06T09:06:57.751Z,100398.94
2022-10-06T09:09:39.226Z,100400.78
2022-10-06T09:12:15.375Z,100400.75
2022-10-06T09:14:48.970Z,100400.34
2022-10-06T09:17:23.798Z,100394.22
2022-10-06T09:19:57.823Z,100389.75
2022-10-06T09:22:30.663Z,100399.66
2022-10-06T09:25:02.544Z,100395.16
2022-10-06T09:27:33.675Z,100396.72
2022-10-06T09:30:04.583Z,100399.09
2022-10-06T09:32:34.772Z,100399.09
2022-10-06T09:35:18.823Z,100410.00
2022-10-06T09:37:54.607Z,100416.66
2022-10-06T09:40:44.477Z,100412.75
2022-10-06T09:43:20.446Z,100412.50
2022-10-06T09:45:51.650Z,100414.31
2022-10-06T09:48:24.757Z,100423.81
2022-10-06T09:51:12.657Z,100420.75
2022-10-06T09:53:41.846Z,100417.72
2022-10-06T09:56:15.358Z,100416.44
2022-10-06T09:58:54.287Z,100426.13
2022-10-06T10:01:25.549Z,100414.44
2022-10-06T10:04:20.613Z,100414.41
2022-10-06T10:06:50.605Z,100408.47
2022-10-06T10:09:28.383Z,100420.53
2022-10-06T10:12:28.613Z,100418.63
2022-10-06T10:14:59.663Z,100415.94
2022-10-06T10:17:38.870Z,100408.97
2022-10-06T10:20:24.246Z,100420.13
2022-10-06T10:22:54.651Z,100423.91
2022-10-06T10:25:53.960Z,100410.47
2022-10-06T10:28:35.339Z,100408.28
2022-10-06T10:31:10.322Z,100412.22
2022-10-06T10:33:53.878Z,100407.69
2022-10-06T10:36:38.074Z,100413.38
2022-10-06T10:39:13.366Z,100410.44
2022-10-06T10:41:45.165Z,100412.09
2022-10-06T10:44:21.597Z,100406.47
2022-10-06T10:46:54.873Z,100412.91
2022-10-06T10:49:28.182Z,100410.56
2022-10-06T10:51:59.820Z,100413.94
2022-10-06T10:54:34.489Z,100420.66
2022-10-06T10:57:03.548Z,100414.00
2022-10-06T10:59:35.151Z,100411.59
2022-10-06T11:02:10.922Z,100407.28
2022-10-06T11:04:42.705Z,100408.41
2022-10-06T11:07:19.603Z,100403.44
2022-10-06T11:09:56.319Z,100414.09
2022-10-06T11:12:37.147Z,100405.81
2022-10-06T11:15:11.920Z,100408.53
2022-10-06T11:17:45.130Z,100404.63
2022-10-06T11:20:33.775Z,100403.88
2022-10-06T11:23:14.945Z,100401.69
2022-10-06T11:25:49.418Z,100396.22
2022-10-06T11:28:20.903Z,100401.69
2022-10-06T11:31:02.427Z,100402.31
2022-10-06T11:33:34.590Z,100390.09
2022-10-06T11:36:04.689Z,100393.81
2022-10-06T11:38:38.396Z,100392.28
2022-10-06T11:41:14.543Z,100391.88
2022-10-06T11:43:49.038Z,100392.78
2022-10-06T11:46:32.822Z,100382.41
2022-10-06T11:49:39.474Z,100379.81
2022-10-06T11:52:36.717Z,100378.31
2022-10-06T11:55:10.565Z,100365.31
2022-10-06T11:58:12.679Z,100375.59
2022-10-06T12:00:52.384Z,100370.59
2022-10-06T12:03:54.576Z,100367.25
2022-10-06T12:06:58.652Z,100369.53
2022-10-06T12:09:46.055Z,100375.72
2022-10-06T12:13:06.892Z,100372.28
2022-10-06T12:19:03.868Z,100379.13
2022-10-06T12:21:53.582Z,100368.69
2022-10-06T12:24:28.893Z,100378.84
2022-10-06T12:27:25.111Z,100368.97
2022-10-06T12:30:01.260Z,100365.66
2022-10-06T12:32:40.706Z,100367.34
2022-10-06T12:35:18.035Z,100367.50
2022-10-06T12:37:53.821Z,100360.91
2022-10-06T12:40:55.413Z,100360.69
2022-10-06T12:43:50.027Z,100358.41
2022-10-06T12:46:37.676Z,100365.31
2022-10-06T12:49:23.195Z,100365.53
2022-10-06T12:51:56.054Z,100355.75
2022-10-06T12:54:33.201Z,100351.94
2022-10-06T12:57:03.822Z,100356.44
2022-10-06T12:59:33.830Z,100354.03
2022-10-06T13:02:05.505Z,100352.63
2022-10-06T13:04:38.350Z,100349.09
2022-10-06T13:07:14.907Z,100345.50
2022-10-06T13:09:43.743Z,100337.56
2022-10-06T13:12:31.116Z,100345.75
2022-10-06T13:15:16.125Z,100342.03
2022-10-06T13:17:47.506Z,100344.47
2022-10-06T13:20:24.285Z,100342.97
2022-10-06T13:23:00.657Z,100348.38
2022-10-06T13:25:35.726Z,100336.81
2022-10-06T13:28:04.533Z,100331.53
2022-10-06T13:30:38.417Z,100339.16
2022-10-06T13:33:08.485Z,100336.06
2022-10-06T13:35:38.755Z,100331.91
2022-10-06T13:38:07.519Z,100329.63
2022-10-06T13:40:45.055Z,100335.69
2022-10-06T13:43:18.188Z,100329.84
2022-10-06T13:45:48.329Z,100335.13
2022-10-06T13:48:18.951Z,100331.44
2022-10-06T13:50:50.024Z,100332.03
2022-10-06T13:53:27.587Z,100315.00
2022-10-06T13:55:56.551Z,100335.84
2022-10-06T13:58:27.908Z,100338.50
2022-10-06T14:00:58.086Z,100336.19
2022-10-06T14:03:29.429Z,100333.53
2022-10-06T14:06:16.949Z,100331.00
2022-10-06T14:08:47.460Z,100333.16
2022-10-06T14:11:22.683Z,100334.69
2022-10-06T14:13:53.035Z,100334.44
2022-10-06T14:16:23.397Z,100327.53
2022-10-06T14:18:56.516Z,100324.56
2022-10-06T14:21:45.650Z,100325.00
2022-10-06T14:24:26.047Z,100325.47
2022-10-06T14:26:55.793Z,100322.47
2022-10-06T14:29:25.141Z,100324.78
2022-10-06T14:31:55.151Z,100314.38
2022-10-06T14:34:23.807Z,100321.63
2022-10-06T14:36:55.380Z,100327.25
2022-10-06T14:39:24.088Z,100314.81
2022-10-06T14:41:52.938Z,100320.91
2022-10-06T14:44:22.079Z,100314.25
2022-10-06T14:46:51.388Z,100309.50
2022-10-06T14:49:20.388Z,100308.69
2022-10-06T14:51:49.104Z,100310.75
2022-10-06T14:54:21.431Z,100309.34
2022-10-06T14:56:53.477Z,100315.69
2022-10-06T14:59:22.547Z,100307.63
2022-10-06T15:01:51.234Z,100304.88
2022-10-06T15:04:24.114Z,100303.50
2022-10-06T15:07:10.517Z,100311.44
2022-10-06T15:09:40.610Z,100306.38
2022-10-06T15:12:09.306Z,100306.00
2022-10-06T15:14:39.725Z,100306.25
2022-10-06T15:17:08.662Z,100309.34
2022-10-06T15:19:37.358Z,100301.88
2022-10-06T15:22:08.755Z,100285.47
2022-10-06T15:24:37.452Z,100298.63
2022-10-06T15:27:27.529Z,100293.41
2022-10-06T15:29:56.830Z,100296.75
2022-10-06T15:32:25.655Z,100292.59
2022-10-06T15:34:55.227Z,100294.63
2022-10-06T15:37:23.897Z,100294.16
2022-10-06T15:39:53.086Z,100293.56
2022-10-06T15:42:25.162Z,100297.25
2022-10-06T15:44:54.208Z,100297.47
2022-10-06T15:47:23.659Z,100291.81
2022-10-06T15:49:52.284Z,100294.66
2022-10-06T15:52:20.975Z,100291.00
2022-10-06T15:54:49.810Z,100292.03
2022-10-06T15:57:21.246Z,100281.53
2022-10-06T15:59:51.600Z,100283.50
2022-10-06T16:02:21.109Z,100291.75
2022-10-06T16:05:18.842Z,100287.53
2022-10-06T16:07:47.745Z,100283.00
2022-10-06T16:10:16.412Z,100283.44
2022-10-06T16:12:45.090Z,100279.25
2022-10-06T16:15:15.108Z,100280.00
2022-10-06T16:17:43.724Z,100275.38
2022-10-06T16:20:12.532Z,100275.09
2022-10-06T16:22:41.773Z,100291.75
2022-10-06T16:25:11.007Z,100286.84
2022-10-06T16:27:40.104Z,100289.50
2022-10-06T16:30:09.906Z,100291.53
2022-10-06T16:32:40.285Z,100288.94
2022-10-06T16:35:13.565Z,100291.25
2022-10-06T16:37:49.181Z,100288.88
2022-10-06T16:40:17.977Z,100279.66
2022-10-06T16:42:46.601Z,100290.78
2022-10-06T16:45:15.485Z,100291.81
2022-10-06T16:47:45.860Z,100288.59
2022-10-06T16:50:14.725Z,100296.72
2022-10-06T16:52:43.478Z,100281.22
2022-10-06T16:55:12.139Z,100298.63
2022-10-06T16:57:40.742Z,100298.00
2022-10-06T17:00:10.985Z,100296.19
2022-10-06T17:02:41.086Z,100297.78
2022-10-06T17:05:11.606Z,100304.34
2022-10-06T17:07:40.287Z,100302.94
2022-10-06T17:10:22.568Z,100300.13
2022-10-06T17:12:51.316Z,100307.28
2022-10-06T17:15:19.957Z,100305.09
2022-10-06T17:17:48.867Z,100300.25
2022-10-06T17:20:19.012Z,100289.13
2022-10-06T17:22:48.600Z,100303.28
2022-10-06T17:25:17.326Z,100304.31
2022-10-06T17:27:46.032Z,100310.47
2022-10-06T17:30:16.670Z,100301.19
2022-10-06T17:32:46.998Z,100305.00
2022-10-06T17:35:16.026Z,100275.75
2022-10-06T17:37:45.987Z,100319.81
2022-10-06T17:40:14.722Z,100311.16
2022-10-06T17:42:43.694Z,100328.78
2022-10-06T17:45:12.493Z,100308.88
2022-10-06T17:47:41.463Z,100307.75
2022-10-06T17:50:11.168Z,100309.78
2022-10-06T17:52:40.199Z,100315.06
2022-10-06T17:55:10.841Z,100313.03
2022-10-06T17:57:39.984Z,100312.22
2022-10-06T18:00:10.362Z,100309.22
2022-10-06T18:02:40.515Z,100310.47
2022-10-06T18:05:09.751Z,100306.47
2022-10-06T18:07:38.449Z,100315.97
2022-10-06T18:10:25.310Z,100307.09
2022-10-06T18:12:55.278Z,100311.56
2022-10-06T18:15:24.101Z,100312.34
2022-10-06T18:17:53.315Z,100306.72
2022-10-06T18:20:22.046Z,100307.56
2022-10-06T18:22:50.833Z,100314.00
2022-10-06T18:25:24.512Z,100314.44
2022-10-06T18:27:56.774Z,100310.44
2022-10-06T18:30:29.373Z,100317.94
2022-10-06T18:35:23.702Z,100290.41
2022-10-06T18:38:43.495Z,100304.56
2022-10-06T18:41:15.097Z,100306.19
2022-10-06T18:43:45.480Z,100262.94
2022-10-06T18:46:33.170Z,100303.19
2022-10-06T18:49:05.855Z,100304.19
2022-10-06T18:51:36.061Z,100310.25
2022-10-06T18:54:06.450Z,100308.06
2022-10-06T18:56:37.084Z,100292.91
2022-10-06T18:59:10.323Z,100305.41
2022-10-06T19:01:41.393Z,100306.06
2022-10-06T19:04:10.956Z,100307.28
2022-10-06T19:06:42.530Z,100303.44
2022-10-06T19:09:16.891Z,100306.06
2022-10-06T19:11:51.772Z,100316.59
2022-10-06T19:14:23.134Z,100317.63
2022-10-06T19:16:56.266Z,100305.72
2022-10-06T19:19:25.910Z,100291.34
2022-10-06T19:21:57.083Z,100312.59
2022-10-06T19:24:26.172Z,100305.94
2022-10-06T19:26:56.391Z,100305.28
2022-10-06T19:29:26.872Z,100305.72
2022-10-06T19:31:58.567Z,100300.47
2022-10-06T19:34:27.622Z,100279.00
2022-10-06T19:36:58.252Z,100310.56
2022-10-06T19:39:30.426Z,100311.78
2022-10-06T19:42:17.166Z,100311.41
2022-10-06T19:44:47.377Z,100309.22
2022-10-06T19:47:16.644Z,100302.28
2022-10-06T19:49:45.995Z,100313.66
2022-10-06T19:52:15.133Z,100308.59
2022-10-06T19:54:43.804Z,100308.59
2022-10-06T19:57:12.826Z,100308.59
2022-10-06T19:59:41.626Z,100304.72
2022-10-06T20:02:13.011Z,100313.44
2022-10-06T20:04:42.197Z,100308.59
2022-10-06T20:07:10.893Z,100281.50
2022-10-06T20:09:39.760Z,100302.94
2022-10-06T20:12:08.442Z,100308.19
2022-10-06T20:14:37.319Z,100294.84
2022-10-06T20:17:06.444Z,100296.47
2022-10-06T20:19:36.529Z,100300.34
2022-10-06T20:22:06.033Z,100295.50
2022-10-06T20:24:35.184Z,100313.34
2022-10-06T20:27:03.897Z,100304.22
2022-10-06T20:29:32.976Z,100315.53
2022-10-06T20:32:01.779Z,100308.69
2022-10-06T20:34:32.023Z,100286.22
2022-10-06T20:37:03.480Z,100303.84
2022-10-06T20:39:51.243Z,100309.47
2022-10-06T20:42:20.826Z,100307.06
2022-10-06T20:44:49.497Z,100311.72
2022-10-06T20:47:18.305Z,100302.81
2022-10-06T20:49:46.956Z,100280.75
2022-10-06T20:52:16.979Z,100294.13
2022-10-06T20:54:45.665Z,100306.25
2022-10-06T20:57:14.334Z,100309.91
2022-10-06T20:59:45.201Z,100303.44
2022-10-06T21:02:14.067Z,100294.31
2022-10-06T21:04:43.499Z,100301.19
2022-10-06T21:07:12.263Z,100308.28
2022-10-06T21:09:42.358Z,100293.94
2022-10-06T21:12:11.552Z,100309.50
2022-10-06T21:14:42.277Z,100296.75
2022-10-06T21:17:11.770Z,100291.47
2022-10-06T21:19:40.456Z,100300.59
2022-10-06T21:22:09.072Z,100285.00
2022-10-06T21:24:37.785Z,100282.56
2022-10-06T21:27:07.809Z,100295.72
2022-10-06T21:29:36.400Z,100289.25
2022-10-06T21:32:05.063Z,100290.88
2022-10-06T21:34:33.823Z,100287.44
2022-10-06T21:37:02.552Z,100283.19
2022-10-06T21:39:31.174Z,100288.44
2022-10-06T21:41:59.756Z,100279.13
2022-10-06T21:44:29.807Z,100274.69
2022-10-06T21:47:02.434Z,100275.91
2022-10-06T21:49:31.174Z,100247.19
2022-10-06T21:52:04.564Z,100257.28
2022-10-06T21:54:34.109Z,100230.53
2022-10-06T21:57:02.756Z,100258.50
2022-10-06T21:59:32.811Z,100261.31
2022-10-06T22:02:01.602Z,100260.31
2022-10-06T22:04:30.254Z,100249.81
2022-10-06T22:06:58.892Z,100246.94
2022-10-06T22:09:27.523Z,100244.09
2022-10-06T22:11:56.124Z,100230.94
2022-10-06T22:14:24.822Z,100247.94
2022-10-06T22:16:58.270Z,100244.88
2022-10-06T22:19:27.032Z,100235.59
2022-10-06T22:21:55.657Z,100243.88
2022-10-06T22:24:24.746Z,100242.66
2022-10-06T22:26:53.531Z,100235.38
2022-10-06T22:29:22.155Z,100243.88
2022-10-06T22:31:50.942Z,100233.38
2022-10-06T22:34:21.833Z,100237.00
2022-10-06T22:36:50.465Z,100239.44
2022-10-06T22:39:19.130Z,100239.03
2022-10-06T22:41:47.822Z,100211.31
2022-10-06T22:44:16.439Z,100236.19
2022-10-06T22:46:45.211Z,100241.47
2022-10-06T22:49:14.085Z,100213.72
2022-10-06T22:51:44.093Z,100230.53
2022-10-06T22:54:18.329Z,100213.16
2022-10-06T22:56:47.127Z,100220.44
2022-10-06T22:59:15.805Z,100200.59
2022-10-06T23:01:44.465Z,100211.94
2022-10-06T23:04:13.167Z,100209.50
2022-10-06T23:06:41.774Z,100211.56
2022-10-06T23:09:12.712Z,100197.59
2022-10-06T23:11:41.361Z,100202.66
2022-10-06T23:14:09.976Z,100193.53
2022-10-06T23:16:38.664Z,100196.97
2022-10-06T23:19:07.378Z,100181.38
2022-10-06T23:21:39.718Z,100186.44
2022-10-06T23:24:08.426Z,100174.72
2022-10-06T23:26:38.428Z,100182.59
2022-10-06T23:29:07.521Z,100171.91
2022-10-06T23:31:36.160Z,100172.69
2022-10-06T23:34:04.778Z,100172.88
2022-10-06T23:36:33.500Z,100168.25
2022-10-06T23:39:02.165Z,100171.28
2022-10-06T23:41:30.810Z,100170.91
2022-10-06T23:44:00.953Z,100172.28
2022-10-06T23:46:29.574Z,100161.16
2022-10-06T23:48:58.383Z,100163.81
2022-10-06T23:51:27.357Z,100160.97
2022-10-06T23:53:55.983Z,100162.59
2022-10-06T23:56:25.376Z,100160.19
2022-10-06T23:58:54.026Z,100152.88
